sensor_id;sensor_type;location;lat;lon;timestamp;P1;durP1;ratioP1;P2;durP2;ratioP2
20908;SDS011;10614;53.198;6.570;2023-05-19T00:01:15;6.82;;;3.17;;
20908;SDS011;10614;53.198;6.570;2023-05-19T00:03:20;7.97;;;3.35;;
20908;SDS011;10614;53.198;6.570;2023-05-19T00:05:23;8.60;;;3.20;;
20908;SDS011;10614;53.198;6.570;2023-05-19T00:07:27;8.15;;;4.00;;
20908;SDS011;10614;53.198;6.570;2023-05-19T00:09:33;12.80;;;3.90;;
20908;SDS011;10614;53.198;6.570;2023-05-19T00:11:36;11.52;;;3.80;;
20908;SDS011;10614;53.198;6.570;2023-05-19T00:13:39;6.68;;;3.20;;
20908;SDS011;10614;53.198;6.570;2023-05-19T00:15:41;7.05;;;3.10;;
20908;SDS011;10614;53.198;6.570;2023-05-19T00:17:43;6.10;;;3.67;;
20908;SDS011;10614;53.198;6.570;2023-05-19T00:19:45;7.93;;;3.55;;
20908;SDS011;10614;53.198;6.570;2023-05-19T00:21:48;9.77;;;3.75;;
20908;SDS011;10614;53.198;6.570;2023-05-19T00:23:49;9.80;;;3.70;;
20908;SDS011;10614;53.198;6.570;2023-05-19T00:25:53;9.45;;;4.05;;
20908;SDS011;10614;53.198;6.570;2023-05-19T00:27:55;9.10;;;3.30;;
20908;SDS011;10614;53.198;6.570;2023-05-19T00:29:58;10.63;;;3.83;;
20908;SDS011;10614;53.198;6.570;2023-05-19T00:31:59;8.90;;;3.85;;
20908;SDS011;10614;53.198;6.570;2023-05-19T00:34:01;10.85;;;3.58;;
20908;SDS011;10614;53.198;6.570;2023-05-19T00:36:03;11.70;;;3.90;;
20908;SDS011;10614;53.198;6.570;2023-05-19T00:38:05;9.63;;;3.80;;
20908;SDS011;10614;53.198;6.570;2023-05-19T00:40:08;9.35;;;3.38;;
20908;SDS011;10614;53.198;6.570;2023-05-19T00:42:12;7.68;;;3.75;;
20908;SDS011;10614;53.198;6.570;2023-05-19T00:44:16;8.65;;;3.65;;
20908;SDS011;10614;53.198;6.570;2023-05-19T00:46:18;9.38;;;3.63;;
20908;SDS011;10614;53.198;6.570;2023-05-19T00:48:20;10.48;;;3.88;;
20908;SDS011;10614;53.198;6.570;2023-05-19T00:50:22;7.55;;;3.50;;
20908;SDS011;10614;53.198;6.570;2023-05-19T00:52:24;7.05;;;3.60;;
20908;SDS011;10614;53.198;6.570;2023-05-19T00:54:26;12.52;;;3.70;;
20908;SDS011;10614;53.198;6.570;2023-05-19T00:56:28;8.23;;;3.90;;
20908;SDS011;10614;53.198;6.570;2023-05-19T00:58:33;9.45;;;3.88;;
20908;SDS011;10614;53.198;6.570;2023-05-19T01:00:36;7.75;;;3.30;;
20908;SDS011;10614;53.198;6.570;2023-05-19T01:02:38;8.95;;;3.25;;
20908;SDS011;10614;53.198;6.570;2023-05-19T01:04:40;11.50;;;3.83;;
20908;SDS011;10614;53.198;6.570;2023-05-19T01:06:43;8.57;;;3.25;;
20908;SDS011;10614;53.198;6.570;2023-05-19T01:08:46;6.32;;;3.10;;
20908;SDS011;10614;53.198;6.570;2023-05-19T01:10:48;6.40;;;3.10;;
20908;SDS011;10614;53.198;6.570;2023-05-19T01:12:50;7.50;;;3.35;;
20908;SDS011;10614;53.198;6.570;2023-05-19T01:14:53;6.47;;;3.10;;
20908;SDS011;10614;53.198;6.570;2023-05-19T01:16:57;7.73;;;3.23;;
20908;SDS011;10614;53.198;6.570;2023-05-19T01:19:07;7.03;;;3.15;;
20908;SDS011;10614;53.198;6.570;2023-05-19T01:21:29;7.63;;;3.03;;
20908;SDS011;10614;53.198;6.570;2023-05-19T01:23:58;7.20;;;2.95;;
20908;SDS011;10614;53.198;6.570;2023-05-19T01:26:18;9.00;;;3.17;;
20908;SDS011;10614;53.198;6.570;2023-05-19T01:31:11;7.10;;;3.25;;
20908;SDS011;10614;53.198;6.570;2023-05-19T01:33:13;8.38;;;3.15;;
20908;SDS011;10614;53.198;6.570;2023-05-19T01:35:15;7.32;;;3.20;;
20908;SDS011;10614;53.198;6.570;2023-05-19T01:37:16;11.63;;;3.03;;
20908;SDS011;10614;53.198;6.570;2023-05-19T01:39:19;8.13;;;3.20;;
20908;SDS011;10614;53.198;6.570;2023-05-19T01:41:21;9.77;;;3.78;;
20908;SDS011;10614;53.198;6.570;2023-05-19T01:43:25;9.57;;;3.35;;
20908;SDS011;10614;53.198;6.570;2023-05-19T01:45:28;8.32;;;3.42;;
20908;SDS011;10614;53.198;6.570;2023-05-19T01:47:32;7.20;;;3.20;;
20908;SDS011;10614;53.198;6.570;2023-05-19T01:49:37;7.38;;;3.38;;
20908;SDS011;10614;53.198;6.570;2023-05-19T01:51:39;7.60;;;3.33;;
20908;SDS011;10614;53.198;6.570;2023-05-19T01:53:41;6.68;;;3.10;;
20908;SDS011;10614;53.198;6.570;2023-05-19T01:55:43;8.18;;;3.25;;
20908;SDS011;10614;53.198;6.570;2023-05-19T01:57:49;10.25;;;3.60;;
20908;SDS011;10614;53.198;6.570;2023-05-19T02:00:03;7.32;;;2.88;;
20908;SDS011;10614;53.198;6.570;2023-05-19T02:02:13;6.85;;;3.08;;
20908;SDS011;10614;53.198;6.570;2023-05-19T02:04:30;8.23;;;3.33;;
20908;SDS011;10614;53.198;6.570;2023-05-19T02:06:41;6.65;;;3.20;;
20908;SDS011;10614;53.198;6.570;2023-05-19T02:08:50;5.47;;;2.50;;
20908;SDS011;10614;53.198;6.570;2023-05-19T02:10:59;7.72;;;2.85;;
20908;SDS011;10614;53.198;6.570;2023-05-19T02:13:03;7.75;;;3.08;;
20908;SDS011;10614;53.198;6.570;2023-05-19T02:15:09;7.43;;;2.85;;
20908;SDS011;10614;53.198;6.570;2023-05-19T02:17:14;7.25;;;3.08;;
20908;SDS011;10614;53.198;6.570;2023-05-19T02:19:22;6.32;;;2.72;;
20908;SDS011;10614;53.198;6.570;2023-05-19T02:21:26;7.45;;;2.88;;
20908;SDS011;10614;53.198;6.570;2023-05-19T02:23:27;7.88;;;3.03;;
20908;SDS011;10614;53.198;6.570;2023-05-19T02:25:30;5.32;;;2.30;;
20908;SDS011;10614;53.198;6.570;2023-05-19T02:27:32;6.97;;;2.70;;
20908;SDS011;10614;53.198;6.570;2023-05-19T02:29:34;7.82;;;2.85;;
20908;SDS011;10614;53.198;6.570;2023-05-19T02:31:36;7.22;;;3.03;;
20908;SDS011;10614;53.198;6.570;2023-05-19T02:33:39;7.85;;;2.88;;
20908;SDS011;10614;53.198;6.570;2023-05-19T02:35:42;7.45;;;3.15;;
20908;SDS011;10614;53.198;6.570;2023-05-19T02:37:46;10.30;;;3.42;;
20908;SDS011;10614;53.198;6.570;2023-05-19T02:39:50;9.13;;;3.22;;
20908;SDS011;10614;53.198;6.570;2023-05-19T02:41:52;9.97;;;3.30;;
20908;SDS011;10614;53.198;6.570;2023-05-19T02:46:05;8.85;;;3.13;;
20908;SDS011;10614;53.198;6.570;2023-05-19T02:48:06;6.70;;;2.97;;
20908;SDS011;10614;53.198;6.570;2023-05-19T02:50:08;8.80;;;3.15;;
20908;SDS011;10614;53.198;6.570;2023-05-19T02:52:10;10.10;;;3.90;;
20908;SDS011;10614;53.198;6.570;2023-05-19T02:54:14;8.07;;;3.17;;
20908;SDS011;10614;53.198;6.570;2023-05-19T02:56:15;10.18;;;2.92;;
20908;SDS011;10614;53.198;6.570;2023-05-19T02:58:18;12.40;;;3.78;;
20908;SDS011;10614;53.198;6.570;2023-05-19T03:00:20;7.22;;;3.33;;
20908;SDS011;10614;53.198;6.570;2023-05-19T03:02:22;6.45;;;3.10;;
20908;SDS011;10614;53.198;6.570;2023-05-19T03:04:24;9.82;;;3.30;;
20908;SDS011;10614;53.198;6.570;2023-05-19T03:06:26;8.07;;;3.42;;
20908;SDS011;10614;53.198;6.570;2023-05-19T03:08:28;5.57;;;2.88;;
20908;SDS011;10614;53.198;6.570;2023-05-19T03:10:31;5.20;;;2.72;;
20908;SDS011;10614;53.198;6.570;2023-05-19T03:12:33;7.45;;;3.15;;
20908;SDS011;10614;53.198;6.570;2023-05-19T03:14:35;7.72;;;3.65;;
20908;SDS011;10614;53.198;6.570;2023-05-19T03:16:38;7.93;;;3.55;;
20908;SDS011;10614;53.198;6.570;2023-05-19T03:18:41;8.68;;;3.40;;
20908;SDS011;10614;53.198;6.570;2023-05-19T03:20:43;7.40;;;3.50;;
20908;SDS011;10614;53.198;6.570;2023-05-19T03:22:45;7.80;;;3.15;;
20908;SDS011;10614;53.198;6.570;2023-05-19T03:24:47;8.82;;;3.63;;
20908;SDS011;10614;53.198;6.570;2023-05-19T03:26:52;6.38;;;3.30;;
20908;SDS011;10614;53.198;6.570;2023-05-19T03:28:57;8.05;;;3.65;;
20908;SDS011;10614;53.198;6.570;2023-05-19T03:30:58;7.32;;;3.00;;
20908;SDS011;10614;53.198;6.570;2023-05-19T03:33:00;9.82;;;3.72;;
20908;SDS011;10614;53.198;6.570;2023-05-19T03:35:02;13.55;;;4.10;;
20908;SDS011;10614;53.198;6.570;2023-05-19T03:37:04;9.48;;;4.00;;
20908;SDS011;10614;53.198;6.570;2023-05-19T03:39:06;9.80;;;3.70;;
20908;SDS011;10614;53.198;6.570;2023-05-19T03:41:08;8.23;;;3.90;;
20908;SDS011;10614;53.198;6.570;2023-05-19T03:43:11;7.95;;;3.70;;
20908;SDS011;10614;53.198;6.570;2023-05-19T03:45:15;9.68;;;4.50;;
20908;SDS011;10614;53.198;6.570;2023-05-19T03:47:16;8.88;;;3.47;;
20908;SDS011;10614;53.198;6.570;2023-05-19T03:49:18;10.13;;;4.05;;
20908;SDS011;10614;53.198;6.570;2023-05-19T03:51:20;8.63;;;4.10;;
20908;SDS011;10614;53.198;6.570;2023-05-19T03:53:22;8.10;;;4.47;;
20908;SDS011;10614;53.198;6.570;2023-05-19T03:55:25;7.95;;;4.65;;
20908;SDS011;10614;53.198;6.570;2023-05-19T03:57:28;8.63;;;4.50;;
20908;SDS011;10614;53.198;6.570;2023-05-19T03:59:31;9.43;;;4.55;;
20908;SDS011;10614;53.198;6.570;2023-05-19T04:01:34;8.50;;;4.30;;
20908;SDS011;10614;53.198;6.570;2023-05-19T04:03:36;10.52;;;4.88;;
20908;SDS011;10614;53.198;6.570;2023-05-19T04:05:38;11.55;;;4.70;;
20908;SDS011;10614;53.198;6.570;2023-05-19T04:07:39;9.98;;;4.10;;
20908;SDS011;10614;53.198;6.570;2023-05-19T04:09:42;7.72;;;4.50;;
20908;SDS011;10614;53.198;6.570;2023-05-19T04:11:44;9.23;;;4.43;;
20908;SDS011;10614;53.198;6.570;2023-05-19T04:13:46;11.00;;;4.57;;
20908;SDS011;10614;53.198;6.570;2023-05-19T04:15:49;8.93;;;4.07;;
20908;SDS011;10614;53.198;6.570;2023-05-19T04:17:51;6.82;;;3.83;;
20908;SDS011;10614;53.198;6.570;2023-05-19T04:19:52;8.25;;;3.50;;
20908;SDS011;10614;53.198;6.570;2023-05-19T04:21:56;6.35;;;3.75;;
20908;SDS011;10614;53.198;6.570;2023-05-19T04:23:57;10.65;;;4.20;;
20908;SDS011;10614;53.198;6.570;2023-05-19T04:26:00;8.15;;;4.03;;
20908;SDS011;10614;53.198;6.570;2023-05-19T04:28:05;7.97;;;4.25;;
20908;SDS011;10614;53.198;6.570;2023-05-19T04:30:08;8.85;;;4.20;;
20908;SDS011;10614;53.198;6.570;2023-05-19T04:32:11;8.40;;;4.00;;
20908;SDS011;10614;53.198;6.570;2023-05-19T04:34:16;7.47;;;4.15;;
20908;SDS011;10614;53.198;6.570;2023-05-19T04:36:19;8.48;;;4.10;;
20908;SDS011;10614;53.198;6.570;2023-05-19T04:38:21;8.60;;;4.32;;
20908;SDS011;10614;53.198;6.570;2023-05-19T04:40:23;7.75;;;4.05;;
20908;SDS011;10614;53.198;6.570;2023-05-19T04:42:25;8.45;;;4.35;;
20908;SDS011;10614;53.198;6.570;2023-05-19T04:44:29;8.75;;;3.83;;
20908;SDS011;10614;53.198;6.570;2023-05-19T04:46:32;9.13;;;4.13;;
20908;SDS011;10614;53.198;6.570;2023-05-19T04:48:36;8.85;;;4.40;;
20908;SDS011;10614;53.198;6.570;2023-05-19T04:50:40;7.85;;;4.13;;
20908;SDS011;10614;53.198;6.570;2023-05-19T04:52:42;11.57;;;4.90;;
20908;SDS011;10614;53.198;6.570;2023-05-19T04:54:45;15.48;;;5.93;;
20908;SDS011;10614;53.198;6.570;2023-05-19T04:56:50;13.43;;;5.70;;
20908;SDS011;10614;53.198;6.570;2023-05-19T04:58:55;13.70;;;5.80;;
20908;SDS011;10614;53.198;6.570;2023-05-19T05:00:57;12.18;;;5.72;;
20908;SDS011;10614;53.198;6.570;2023-05-19T05:03:02;9.73;;;5.80;;
20908;SDS011;10614;53.198;6.570;2023-05-19T05:05:09;13.32;;;6.05;;
20908;SDS011;10614;53.198;6.570;2023-05-19T05:07:12;11.73;;;5.93;;
20908;SDS011;10614;53.198;6.570;2023-05-19T05:09:17;11.35;;;5.80;;
20908;SDS011;10614;53.198;6.570;2023-05-19T05:11:25;20.55;;;7.18;;
20908;SDS011;10614;53.198;6.570;2023-05-19T05:15:30;14.77;;;6.85;;
20908;SDS011;10614;53.198;6.570;2023-05-19T05:17:33;15.63;;;6.75;;
20908;SDS011;10614;53.198;6.570;2023-05-19T05:19:37;17.77;;;6.43;;
20908;SDS011;10614;53.198;6.570;2023-05-19T05:21:44;15.50;;;7.82;;
20908;SDS011;10614;53.198;6.570;2023-05-19T05:23:51;15.07;;;7.43;;
20908;SDS011;10614;53.198;6.570;2023-05-19T05:25:56;16.00;;;8.05;;
20908;SDS011;10614;53.198;6.570;2023-05-19T05:27:58;14.88;;;7.50;;
20908;SDS011;10614;53.198;6.570;2023-05-19T05:30:04;16.10;;;7.88;;
20908;SDS011;10614;53.198;6.570;2023-05-19T05:32:06;15.68;;;7.13;;
20908;SDS011;10614;53.198;6.570;2023-05-19T05:34:08;17.48;;;7.93;;
20908;SDS011;10614;53.198;6.570;2023-05-19T05:36:10;12.27;;;6.72;;
20908;SDS011;10614;53.198;6.570;2023-05-19T05:38:14;17.40;;;6.72;;
20908;SDS011;10614;53.198;6.570;2023-05-19T05:40:16;11.63;;;6.18;;
20908;SDS011;10614;53.198;6.570;2023-05-19T05:42:18;11.32;;;6.13;;
20908;SDS011;10614;53.198;6.570;2023-05-19T05:44:20;15.35;;;6.75;;
20908;SDS011;10614;53.198;6.570;2023-05-19T05:46:22;10.73;;;6.40;;
20908;SDS011;10614;53.198;6.570;2023-05-19T05:48:23;10.98;;;6.22;;
20908;SDS011;10614;53.198;6.570;2023-05-19T05:50:26;12.68;;;6.80;;
20908;SDS011;10614;53.198;6.570;2023-05-19T05:52:28;13.98;;;7.13;;
20908;SDS011;10614;53.198;6.570;2023-05-19T05:54:34;16.42;;;7.50;;
20908;SDS011;10614;53.198;6.570;2023-05-19T05:56:37;12.25;;;6.50;;
20908;SDS011;10614;53.198;6.570;2023-05-19T05:58:40;12.98;;;7.32;;
20908;SDS011;10614;53.198;6.570;2023-05-19T06:00:42;16.38;;;7.13;;
20908;SDS011;10614;53.198;6.570;2023-05-19T06:02:48;11.20;;;7.43;;
20908;SDS011;10614;53.198;6.570;2023-05-19T06:04:50;10.15;;;6.82;;
20908;SDS011;10614;53.198;6.570;2023-05-19T06:06:53;9.00;;;6.07;;
20908;SDS011;10614;53.198;6.570;2023-05-19T06:09:00;13.60;;;7.68;;
20908;SDS011;10614;53.198;6.570;2023-05-19T06:11:03;12.77;;;6.90;;
20908;SDS011;10614;53.198;6.570;2023-05-19T06:13:07;13.30;;;7.35;;
20908;SDS011;10614;53.198;6.570;2023-05-19T06:15:09;13.25;;;7.60;;
20908;SDS011;10614;53.198;6.570;2023-05-19T06:17:11;19.08;;;9.40;;
20908;SDS011;10614;53.198;6.570;2023-05-19T06:19:13;14.45;;;8.13;;
20908;SDS011;10614;53.198;6.570;2023-05-19T06:21:18;14.52;;;7.03;;
20908;SDS011;10614;53.198;6.570;2023-05-19T06:23:25;12.40;;;6.95;;
20908;SDS011;10614;53.198;6.570;2023-05-19T06:25:28;14.20;;;7.40;;
20908;SDS011;10614;53.198;6.570;2023-05-19T06:27:34;11.50;;;6.85;;
20908;SDS011;10614;53.198;6.570;2023-05-19T06:29:38;15.82;;;7.35;;
20908;SDS011;10614;53.198;6.570;2023-05-19T06:38:10;9.68;;;6.10;;
20908;SDS011;10614;53.198;6.570;2023-05-19T06:40:15;12.20;;;6.20;;
20908;SDS011;10614;53.198;6.570;2023-05-19T06:51:04;15.63;;;6.15;;
20908;SDS011;10614;53.198;6.570;2023-05-19T06:53:06;8.65;;;5.32;;
20908;SDS011;10614;53.198;6.570;2023-05-19T06:55:11;10.63;;;5.30;;
20908;SDS011;10614;53.198;6.570;2023-05-19T06:57:17;11.70;;;5.22;;
20908;SDS011;10614;53.198;6.570;2023-05-19T06:59:19;11.77;;;5.55;;
20908;SDS011;10614;53.198;6.570;2023-05-19T07:01:22;11.90;;;5.63;;
20908;SDS011;10614;53.198;6.570;2023-05-19T07:03:31;12.85;;;4.97;;
20908;SDS011;10614;53.198;6.570;2023-05-19T07:05:33;13.02;;;4.78;;
20908;SDS011;10614;53.198;6.570;2023-05-19T07:07:37;9.68;;;4.45;;
20908;SDS011;10614;53.198;6.570;2023-05-19T07:09:41;10.10;;;4.00;;
20908;SDS011;10614;53.198;6.570;2023-05-19T07:11:44;10.60;;;4.53;;
20908;SDS011;10614;53.198;6.570;2023-05-19T07:13:46;8.57;;;4.38;;
20908;SDS011;10614;53.198;6.570;2023-05-19T07:15:48;9.73;;;4.32;;
20908;SDS011;10614;53.198;6.570;2023-05-19T07:17:51;13.00;;;4.35;;
20908;SDS011;10614;53.198;6.570;2023-05-19T07:19:54;14.20;;;4.25;;
20908;SDS011;10614;53.198;6.570;2023-05-19T07:22:00;8.23;;;3.95;;
20908;SDS011;10614;53.198;6.570;2023-05-19T07:24:04;8.93;;;4.53;;
20908;SDS011;10614;53.198;6.570;2023-05-19T07:26:06;6.47;;;3.83;;
20908;SDS011;10614;53.198;6.570;2023-05-19T07:28:08;11.20;;;4.00;;
20908;SDS011;10614;53.198;6.570;2023-05-19T07:30:11;7.47;;;3.65;;
20908;SDS011;10614;53.198;6.570;2023-05-19T07:32:14;7.30;;;3.25;;
20908;SDS011;10614;53.198;6.570;2023-05-19T07:34:17;11.23;;;4.35;;
20908;SDS011;10614;53.198;6.570;2023-05-19T07:36:19;9.50;;;3.30;;
20908;SDS011;10614;53.198;6.570;2023-05-19T07:38:21;8.27;;;3.30;;
20908;SDS011;10614;53.198;6.570;2023-05-19T07:40:24;8.68;;;3.70;;
20908;SDS011;10614;53.198;6.570;2023-05-19T07:42:26;8.23;;;3.67;;
20908;SDS011;10614;53.198;6.570;2023-05-19T07:44:28;13.07;;;4.25;;
20908;SDS011;10614;53.198;6.570;2023-05-19T07:46:30;7.82;;;3.60;;
20908;SDS011;10614;53.198;6.570;2023-05-19T07:48:32;8.75;;;4.00;;
20908;SDS011;10614;53.198;6.570;2023-05-19T07:50:34;8.63;;;3.70;;
20908;SDS011;10614;53.198;6.570;2023-05-19T07:52:36;9.50;;;3.30;;
20908;SDS011;10614;53.198;6.570;2023-05-19T07:54:38;8.25;;;3.90;;
20908;SDS011;10614;53.198;6.570;2023-05-19T07:56:41;9.38;;;3.50;;
20908;SDS011;10614;53.198;6.570;2023-05-19T07:58:43;6.65;;;3.50;;
20908;SDS011;10614;53.198;6.570;2023-05-19T08:00:45;6.13;;;2.85;;
20908;SDS011;10614;53.198;6.570;2023-05-19T08:02:47;7.22;;;3.22;;
20908;SDS011;10614;53.198;6.570;2023-05-19T08:04:49;8.07;;;2.95;;
20908;SDS011;10614;53.198;6.570;2023-05-19T08:06:52;8.43;;;3.00;;
20908;SDS011;10614;53.198;6.570;2023-05-19T08:08:58;9.82;;;3.00;;
20908;SDS011;10614;53.198;6.570;2023-05-19T08:11:00;8.57;;;3.13;;
20908;SDS011;10614;53.198;6.570;2023-05-19T08:13:05;6.00;;;2.75;;
20908;SDS011;10614;53.198;6.570;2023-05-19T08:15:07;7.35;;;2.90;;
20908;SDS011;10614;53.198;6.570;2023-05-19T08:17:10;4.78;;;2.53;;
20908;SDS011;10614;53.198;6.570;2023-05-19T08:19:12;9.23;;;3.22;;
20908;SDS011;10614;53.198;6.570;2023-05-19T08:21:14;11.40;;;3.50;;
20908;SDS011;10614;53.198;6.570;2023-05-19T08:23:16;8.90;;;3.20;;
20908;SDS011;10614;53.198;6.570;2023-05-19T08:25:18;5.72;;;2.67;;
20908;SDS011;10614;53.198;6.570;2023-05-19T08:27:20;7.75;;;2.80;;
20908;SDS011;10614;53.198;6.570;2023-05-19T08:29:23;7.72;;;2.88;;
20908;SDS011;10614;53.198;6.570;2023-05-19T08:31:25;5.22;;;2.80;;
20908;SDS011;10614;53.198;6.570;2023-05-19T08:33:27;8.73;;;3.08;;
20908;SDS011;10614;53.198;6.570;2023-05-19T08:35:29;13.32;;;3.47;;
20908;SDS011;10614;53.198;6.570;2023-05-19T08:37:32;14.88;;;3.78;;
20908;SDS011;10614;53.198;6.570;2023-05-19T08:41:37;5.55;;;2.45;;
20908;SDS011;10614;53.198;6.570;2023-05-19T08:43:39;7.25;;;2.85;;
20908;SDS011;10614;53.198;6.570;2023-05-19T08:45:43;8.30;;;3.22;;
20908;SDS011;10614;53.198;6.570;2023-05-19T08:47:47;10.38;;;3.00;;
20908;SDS011;10614;53.198;6.570;2023-05-19T08:49:51;8.65;;;2.67;;
20908;SDS011;10614;53.198;6.570;2023-05-19T08:51:57;10.25;;;2.90;;
20908;SDS011;10614;53.198;6.570;2023-05-19T08:54:08;6.60;;;3.10;;
20908;SDS011;10614;53.198;6.570;2023-05-19T08:56:15;9.07;;;3.10;;
20908;SDS011;10614;53.198;6.570;2023-05-19T08:58:20;8.35;;;3.45;;
20908;SDS011;10614;53.198;6.570;2023-05-19T09:00:23;8.77;;;3.25;;
20908;SDS011;10614;53.198;6.570;2023-05-19T09:02:27;8.05;;;3.15;;
20908;SDS011;10614;53.198;6.570;2023-05-19T09:04:29;7.53;;;3.42;;
20908;SDS011;10614;53.198;6.570;2023-05-19T09:06:32;7.97;;;3.55;;
20908;SDS011;10614;53.198;6.570;2023-05-19T09:08:34;12.30;;;3.65;;
20908;SDS011;10614;53.198;6.570;2023-05-19T09:10:36;9.75;;;3.50;;
20908;SDS011;10614;53.198;6.570;2023-05-19T09:12:39;10.25;;;3.85;;
20908;SDS011;10614;53.198;6.570;2023-05-19T09:14:47;6.35;;;3.25;;
20908;SDS011;10614;53.198;6.570;2023-05-19T09:16:52;7.55;;;2.83;;
20908;SDS011;10614;53.198;6.570;2023-05-19T09:18:58;7.47;;;3.17;;
20908;SDS011;10614;53.198;6.570;2023-05-19T09:21:03;9.70;;;3.75;;
20908;SDS011;10614;53.198;6.570;2023-05-19T09:23:11;10.67;;;3.57;;
20908;SDS011;10614;53.198;6.570;2023-05-19T09:25:17;6.50;;;2.83;;
20908;SDS011;10614;53.198;6.570;2023-05-19T09:27:23;7.90;;;2.85;;
20908;SDS011;10614;53.198;6.570;2023-05-19T09:29:26;6.05;;;3.30;;
20908;SDS011;10614;53.198;6.570;2023-05-19T09:31:30;9.40;;;3.40;;
20908;SDS011;10614;53.198;6.570;2023-05-19T09:33:36;8.05;;;3.35;;
20908;SDS011;10614;53.198;6.570;2023-05-19T09:35:45;7.10;;;2.78;;
20908;SDS011;10614;53.198;6.570;2023-05-19T09:37:50;7.65;;;3.15;;
20908;SDS011;10614;53.198;6.570;2023-05-19T09:39:53;9.32;;;3.13;;
20908;SDS011;10614;53.198;6.570;2023-05-19T10:10:17;9.52;;;3.05;;
20908;SDS011;10614;53.198;6.570;2023-05-19T10:40:36;4.65;;;2.20;;
20908;SDS011;10614;53.198;6.570;2023-05-19T10:42:46;5.72;;;2.50;;
20908;SDS011;10614;53.198;6.570;2023-05-19T10:45:01;5.70;;;2.42;;
20908;SDS011;10614;53.198;6.570;2023-05-19T10:47:14;9.35;;;2.65;;
20908;SDS011;10614;53.198;6.570;2023-05-19T10:49:24;5.72;;;2.10;;
20908;SDS011;10614;53.198;6.570;2023-05-19T10:51:29;7.55;;;2.72;;
20908;SDS011;10614;53.198;6.570;2023-05-19T10:53:32;8.43;;;2.88;;
20908;SDS011;10614;53.198;6.570;2023-05-19T10:55:49;6.30;;;2.25;;
20908;SDS011;10614;53.198;6.570;2023-05-19T10:57:52;7.07;;;2.60;;
20908;SDS011;10614;53.198;6.570;2023-05-19T11:00:01;6.07;;;2.47;;
20908;SDS011;10614;53.198;6.570;2023-05-19T11:04:38;5.00;;;2.10;;
20908;SDS011;10614;53.198;6.570;2023-05-19T11:06:50;7.97;;;2.92;;
20908;SDS011;10614;53.198;6.570;2023-05-19T11:08:55;7.50;;;2.47;;
20908;SDS011;10614;53.198;6.570;2023-05-19T11:11:12;5.47;;;1.90;;
20908;SDS011;10614;53.198;6.570;2023-05-19T11:13:18;6.75;;;2.20;;
20908;SDS011;10614;53.198;6.570;2023-05-19T11:15:25;6.03;;;2.50;;
20908;SDS011;10614;53.198;6.570;2023-05-19T11:17:33;7.05;;;2.53;;
20908;SDS011;10614;53.198;6.570;2023-05-19T11:19:36;6.07;;;2.10;;
20908;SDS011;10614;53.198;6.570;2023-05-19T11:22:06;7.97;;;2.25;;
20908;SDS011;10614;53.198;6.570;2023-05-19T11:26:48;4.97;;;2.10;;
20908;SDS011;10614;53.198;6.570;2023-05-19T11:28:51;5.85;;;2.15;;
20908;SDS011;10614;53.198;6.570;2023-05-19T11:30:53;5.60;;;2.15;;
20908;SDS011;10614;53.198;6.570;2023-05-19T11:35:02;6.78;;;2.10;;
20908;SDS011;10614;53.198;6.570;2023-05-19T11:37:05;5.18;;;1.92;;
20908;SDS011;10614;53.198;6.570;2023-05-19T11:41:23;6.15;;;2.22;;
20908;SDS011;10614;53.198;6.570;2023-05-19T11:43:37;6.68;;;2.25;;
20908;SDS011;10614;53.198;6.570;2023-05-19T11:45:42;5.93;;;2.22;;
20908;SDS011;10614;53.198;6.570;2023-05-19T11:47:56;5.35;;;2.10;;
20908;SDS011;10614;53.198;6.570;2023-05-19T11:50:01;5.72;;;2.20;;
20908;SDS011;10614;53.198;6.570;2023-05-19T11:52:05;5.55;;;1.85;;
20908;SDS011;10614;53.198;6.570;2023-05-19T12:24:50;8.05;;;2.20;;
20908;SDS011;10614;53.198;6.570;2023-05-19T12:27:04;6.68;;;2.35;;
20908;SDS011;10614;53.198;6.570;2023-05-19T12:29:08;6.07;;;2.25;;
20908;SDS011;10614;53.198;6.570;2023-05-19T12:33:23;6.30;;;2.03;;
20908;SDS011;10614;53.198;6.570;2023-05-19T12:35:26;8.05;;;2.50;;
20908;SDS011;10614;53.198;6.570;2023-05-19T12:39:56;5.60;;;2.10;;
20908;SDS011;10614;53.198;6.570;2023-05-19T12:42:06;6.23;;;2.30;;
20908;SDS011;10614;53.198;6.570;2023-05-19T12:44:18;5.57;;;2.33;;
20908;SDS011;10614;53.198;6.570;2023-05-19T12:46:42;7.95;;;2.47;;
20908;SDS011;10614;53.198;6.570;2023-05-19T12:48:44;6.30;;;2.40;;
20908;SDS011;10614;53.198;6.570;2023-05-19T12:50:50;6.70;;;2.30;;
20908;SDS011;10614;53.198;6.570;2023-05-19T12:52:59;8.38;;;2.35;;
20908;SDS011;10614;53.198;6.570;2023-05-19T12:55:08;8.00;;;2.60;;
20908;SDS011;10614;53.198;6.570;2023-05-19T12:57:15;6.13;;;2.28;;
20908;SDS011;10614;53.198;6.570;2023-05-19T12:59:21;11.52;;;2.85;;
20908;SDS011;10614;53.198;6.570;2023-05-19T13:01:34;6.82;;;2.50;;
20908;SDS011;10614;53.198;6.570;2023-05-19T13:03:55;6.18;;;2.33;;
20908;SDS011;10614;53.198;6.570;2023-05-19T13:06:02;7.45;;;2.42;;
20908;SDS011;10614;53.198;6.570;2023-05-19T13:08:13;8.23;;;2.50;;
20908;SDS011;10614;53.198;6.570;2023-05-19T13:13:21;6.97;;;2.53;;
20908;SDS011;10614;53.198;6.570;2023-05-19T13:15:24;7.60;;;2.60;;
20908;SDS011;10614;53.198;6.570;2023-05-19T13:17:33;8.18;;;2.70;;
20908;SDS011;10614;53.198;6.570;2023-05-19T13:19:37;9.40;;;2.72;;
20908;SDS011;10614;53.198;6.570;2023-05-19T13:21:39;7.00;;;2.70;;
20908;SDS011;10614;53.198;6.570;2023-05-19T13:24:02;6.07;;;2.30;;
20908;SDS011;10614;53.198;6.570;2023-05-19T13:26:29;7.93;;;2.45;;
20908;SDS011;10614;53.198;6.570;2023-05-19T13:28:43;6.68;;;2.30;;
20908;SDS011;10614;53.198;6.570;2023-05-19T13:30:47;8.25;;;2.90;;
20908;SDS011;10614;53.198;6.570;2023-05-19T13:32:51;4.82;;;2.47;;
20908;SDS011;10614;53.198;6.570;2023-05-19T13:34:58;6.20;;;2.30;;
20908;SDS011;10614;53.198;6.570;2023-05-19T13:37:03;8.32;;;2.53;;
20908;SDS011;10614;53.198;6.570;2023-05-19T13:39:20;8.43;;;2.97;;
20908;SDS011;10614;53.198;6.570;2023-05-19T13:41:24;6.03;;;2.20;;
20908;SDS011;10614;53.198;6.570;2023-05-19T13:43:31;8.07;;;2.42;;
20908;SDS011;10614;53.198;6.570;2023-05-19T13:45:42;5.72;;;2.15;;
20908;SDS011;10614;53.198;6.570;2023-05-19T13:47:48;7.63;;;2.30;;
20908;SDS011;10614;53.198;6.570;2023-05-19T13:50:03;11.25;;;3.47;;
20908;SDS011;10614;53.198;6.570;2023-05-19T13:52:07;8.38;;;3.10;;
20908;SDS011;10614;53.198;6.570;2023-05-19T13:54:19;10.32;;;3.00;;
20908;SDS011;10614;53.198;6.570;2023-05-19T13:56:28;13.57;;;4.20;;
20908;SDS011;10614;53.198;6.570;2023-05-19T13:58:35;7.78;;;2.92;;
20908;SDS011;10614;53.198;6.570;2023-05-19T14:00:40;9.48;;;3.10;;
20908;SDS011;10614;53.198;6.570;2023-05-19T14:03:02;9.05;;;4.00;;
20908;SDS011;10614;53.198;6.570;2023-05-19T14:05:18;8.55;;;2.70;;
20908;SDS011;10614;53.198;6.570;2023-05-19T14:07:25;7.30;;;3.00;;
20908;SDS011;10614;53.198;6.570;2023-05-19T14:09:29;7.65;;;3.15;;
20908;SDS011;10614;53.198;6.570;2023-05-19T14:11:34;14.88;;;3.67;;
20908;SDS011;10614;53.198;6.570;2023-05-19T14:13:47;9.90;;;3.40;;
20908;SDS011;10614;53.198;6.570;2023-05-19T14:16:14;9.80;;;3.88;;
20908;SDS011;10614;53.198;6.570;2023-05-19T14:18:30;7.22;;;3.28;;
20908;SDS011;10614;53.198;6.570;2023-05-19T14:20:41;8.73;;;2.90;;
20908;SDS011;10614;53.198;6.570;2023-05-19T14:22:56;10.05;;;3.90;;
20908;SDS011;10614;53.198;6.570;2023-05-19T14:25:20;8.40;;;2.97;;
20908;SDS011;10614;53.198;6.570;2023-05-19T14:27:39;10.95;;;3.80;;
20908;SDS011;10614;53.198;6.570;2023-05-19T14:29:51;12.30;;;4.95;;
20908;SDS011;10614;53.198;6.570;2023-05-19T14:32:01;8.63;;;3.63;;
20908;SDS011;10614;53.198;6.570;2023-05-19T14:34:15;9.30;;;3.13;;
20908;SDS011;10614;53.198;6.570;2023-05-19T14:36:28;6.43;;;2.70;;
20908;SDS011;10614;53.198;6.570;2023-05-19T14:38:36;8.50;;;3.28;;